createdAt,value
2023-02-26T00:16:25.281Z,22.90
2023-02-26T00:18:58.448Z,22.20
2023-02-26T00:21:32.495Z,24.40
2023-02-26T00:24:06.878Z,22.60
2023-02-26T00:26:41.374Z,23.10
2023-02-26T00:29:15.519Z,23.80
2023-02-26T00:31:50.048Z,23.50
2023-02-26T00:34:23.978Z,22.80
2023-02-26T00:37:05.072Z,23.00
2023-02-26T00:39:45.190Z,23.40
2023-02-26T00:42:18.831Z,23.80
2023-02-26T00:44:52.567Z,22.10
2023-02-26T00:47:33.222Z,24.10
2023-02-26T00:50:15.915Z,22.60
2023-02-26T00:52:58.903Z,22.90
2023-02-26T00:55:31.759Z,23.90
2023-02-26T00:58:05.633Z,25.00
2023-02-26T01:00:39.531Z,24.10
2023-02-26T01:03:13.007Z,22.80
2023-02-26T01:05:47.566Z,22.10
2023-02-26T01:08:22.371Z,21.80
2023-02-26T01:10:56.565Z,24.50
2023-02-26T01:13:29.874Z,21.60
2023-02-26T01:16:05.695Z,24.10
2023-02-26T01:18:42.681Z,22.90
2023-02-26T01:21:17.146Z,23.10
2023-02-26T01:23:51.906Z,22.90
2023-02-26T01:26:26.799Z,23.90
2023-02-26T01:29:00.628Z,24.00
2023-02-26T01:31:40.093Z,22.10
2023-02-26T01:34:16.218Z,22.70
2023-02-26T01:36:51.812Z,21.00
2023-02-26T01:39:32.200Z,21.60
2023-02-26T01:42:08.597Z,22.00
2023-02-26T01:44:46.230Z,23.80
2023-02-26T01:47:22.284Z,22.60
2023-02-26T01:49:55.653Z,22.60
2023-02-26T01:53:10.702Z,21.00
2023-02-26T01:55:44.326Z,22.60
2023-02-26T01:58:17.846Z,23.20
2023-02-26T02:00:52.529Z,23.80
2023-02-26T02:03:25.828Z,21.10
2023-02-26T02:06:02.237Z,20.80
2023-02-26T02:08:36.295Z,22.40
2023-02-26T02:11:13.078Z,21.60
2023-02-26T02:30:07.798Z,18.60
2023-02-26T02:32:42.774Z,19.20
2023-02-26T02:35:21.814Z,20.40
2023-02-26T02:37:58.180Z,18.10
2023-02-26T02:40:39.297Z,17.70
2023-02-26T02:43:14.743Z,19.50
2023-02-26T02:45:49.325Z,20.80
2023-02-26T02:48:29.011Z,19.90
2023-02-26T02:51:03.148Z,19.50
2023-02-26T02:53:41.162Z,20.70
2023-02-26T02:56:17.320Z,20.60
2023-02-26T02:58:52.852Z,19.30
2023-02-26T03:01:26.659Z,20.10
2023-02-26T03:04:01.536Z,21.70
2023-02-26T03:06:37.313Z,19.70
2023-02-26T03:09:11.635Z,20.20
2023-02-26T03:11:48.706Z,20.10
2023-02-26T03:14:21.446Z,20.50
2023-02-26T03:17:06.844Z,20.30
2023-02-26T03:19:42.723Z,19.70
2023-02-26T03:22:16.947Z,21.70
2023-02-26T03:25:09.330Z,19.90
2023-02-26T03:27:45.965Z,18.00
2023-02-26T03:30:20.719Z,19.00
2023-02-26T03:33:00.146Z,20.60
2023-02-26T03:35:39.743Z,19.00
2023-02-26T03:38:16.037Z,21.00
2023-02-26T03:40:55.148Z,19.90
2023-02-26T03:43:31.939Z,20.90
2023-02-26T03:46:08.392Z,21.40
2023-02-26T03:48:41.612Z,19.90
2023-02-26T03:51:15.746Z,19.50
2023-02-26T03:53:53.730Z,20.90
2023-02-26T04:17:18.663Z,19.80
2023-02-26T04:19:52.410Z,20.60
2023-02-26T04:22:25.408Z,17.10
2023-02-26T04:24:58.474Z,16.90
2023-02-26T04:27:31.157Z,18.70
2023-02-26T04:30:03.951Z,18.90
2023-02-26T04:32:37.894Z,17.00
2023-02-26T04:35:12.605Z,18.70
2023-02-26T04:37:47.441Z,16.80
2023-02-26T04:40:20.427Z,18.20
2023-02-26T04:42:53.591Z,18.90
2023-02-26T04:45:30.619Z,19.70
2023-02-26T04:48:05.674Z,19.30
2023-02-26T04:50:38.745Z,19.00
2023-02-26T04:53:11.893Z,21.00
2023-02-26T04:55:45.409Z,21.30
2023-02-26T04:58:20.014Z,21.70
2023-02-26T05:00:54.180Z,19.10
2023-02-26T05:03:27.136Z,19.30
2023-02-26T05:06:00.103Z,20.00
2023-02-26T05:08:38.394Z,21.80
2023-02-26T05:11:12.982Z,20.00
2023-02-26T05:13:45.754Z,19.60
2023-02-26T05:16:20.143Z,19.50
2023-02-26T05:18:52.885Z,18.30
2023-02-26T05:21:26.396Z,19.60
2023-02-26T05:23:59.685Z,21.20
2023-02-26T05:26:32.914Z,19.10
2023-02-26T05:29:08.275Z,19.00
2023-02-26T05:31:43.337Z,18.20
2023-02-26T05:34:21.430Z,21.70
2023-02-26T05:36:54.691Z,23.00
2023-02-26T05:39:27.489Z,21.10
2023-02-26T05:42:01.147Z,19.60
2023-02-26T05:44:35.512Z,21.20
2023-02-26T05:47:08.352Z,20.10
2023-02-26T05:49:49.844Z,20.50
2023-02-26T05:52:22.443Z,18.90
2023-02-26T05:54:56.376Z,18.20
2023-02-26T05:57:30.397Z,19.70
2023-02-26T06:00:04.549Z,20.80
2023-02-26T06:02:46.149Z,20.80
2023-02-26T06:05:19.065Z,20.90
2023-02-26T06:07:51.940Z,17.00
2023-02-26T06:10:25.230Z,17.10
2023-02-26T06:12:59.611Z,18.20
2023-02-26T06:15:32.492Z,19.70
2023-02-26T06:18:05.547Z,20.40
2023-02-26T06:20:39.284Z,21.30
2023-02-26T06:23:12.424Z,22.90
2023-02-26T06:25:47.267Z,18.20
2023-02-26T06:28:24.809Z,22.40
2023-02-26T06:30:57.618Z,20.50
2023-02-26T06:33:30.734Z,20.60
2023-02-26T06:36:05.268Z,23.30
2023-02-26T06:38:38.571Z,21.90
2023-02-26T06:41:11.699Z,23.80
2023-02-26T06:43:44.663Z,24.00
2023-02-26T06:46:17.670Z,25.40
2023-02-26T06:48:56.794Z,26.40
2023-02-26T06:51:31.160Z,24.10
2023-02-26T06:54:06.179Z,25.70
2023-02-26T06:56:39.234Z,26.00
2023-02-26T06:59:12.643Z,27.80
2023-02-26T07:01:46.585Z,27.40
2023-02-26T07:04:20.780Z,28.20
2023-02-26T07:06:54.482Z,25.00
2023-02-26T07:09:27.357Z,26.60
2023-02-26T07:12:00.558Z,22.70
2023-02-26T07:14:35.183Z,27.10
2023-02-26T07:17:08.910Z,25.30
2023-02-26T07:19:42.136Z,26.40
2023-02-26T07:22:15.182Z,23.20
2023-02-26T07:24:48.135Z,25.00
2023-02-26T07:27:21.094Z,25.90
2023-02-26T07:29:57.052Z,26.10
2023-02-26T07:32:30.343Z,26.00
2023-02-26T07:35:03.482Z,25.40
2023-02-26T07:37:36.443Z,27.40
2023-02-26T07:40:12.233Z,27.30
2023-02-26T07:42:46.475Z,26.50
2023-02-26T07:45:22.684Z,27.60
2023-02-26T07:47:55.507Z,24.90
2023-02-26T07:50:28.274Z,26.70
2023-02-26T07:53:01.304Z,24.10
2023-02-26T07:55:34.504Z,27.70
2023-02-26T07:58:07.792Z,27.00
2023-02-26T08:00:40.452Z,28.50
2023-02-26T08:03:13.795Z,27.40
2023-02-26T08:05:46.622Z,27.00
2023-02-26T08:08:23.640Z,29.80
2023-02-26T08:10:56.950Z,29.20
2023-02-26T08:13:30.022Z,28.10
2023-02-26T08:16:03.448Z,30.00
2023-02-26T08:18:36.479Z,28.20
2023-02-26T08:21:12.281Z,25.30
2023-02-26T08:23:45.356Z,27.50
2023-02-26T08:26:18.199Z,25.30
2023-02-26T08:28:51.391Z,25.10
2023-02-26T08:31:24.501Z,26.50
2023-02-26T08:33:57.996Z,26.20
2023-02-26T08:36:31.160Z,25.10
2023-02-26T08:39:03.966Z,26.30
2023-02-26T08:41:37.063Z,26.50
2023-02-26T08:44:10.869Z,31.00
2023-02-26T08:46:44.342Z,30.20
2023-02-26T08:49:17.113Z,29.90
2023-02-26T08:51:50.125Z,29.30
2023-02-26T08:54:25.131Z,27.30
2023-02-26T08:56:58.080Z,30.60
2023-02-26T08:59:31.016Z,30.10
2023-02-26T09:02:04.417Z,30.30
2023-02-26T09:04:37.219Z,29.80
2023-02-26T09:07:15.516Z,27.30
2023-02-26T09:09:51.216Z,27.70
2023-02-26T09:12:25.051Z,28.50
2023-02-26T09:14:59.777Z,31.00
2023-02-26T09:17:32.990Z,29.90
2023-02-26T09:20:06.814Z,31.00
2023-02-26T09:22:41.376Z,28.40
2023-02-26T09:25:15.541Z,27.20
2023-02-26T09:27:48.404Z,26.50
2023-02-26T09:30:22.220Z,26.90
2023-02-26T09:32:55.113Z,27.30
2023-02-26T09:35:27.792Z,26.50
2023-02-26T09:38:00.680Z,28.50
2023-02-26T09:40:39.707Z,48.50
2023-02-26T09:43:27.200Z,28.10
2023-02-26T09:46:01.753Z,29.00
2023-02-26T09:48:34.997Z,28.80
2023-02-26T09:51:12.697Z,28.20
2023-02-26T09:53:45.902Z,30.60
2023-02-26T09:56:20.470Z,31.50
2023-02-26T09:58:54.304Z,32.70
2023-02-26T10:01:33.396Z,32.40
2023-02-26T10:04:10.357Z,34.60
2023-02-26T10:06:50.056Z,37.20
2023-02-26T10:09:32.791Z,38.00
2023-02-26T10:12:06.998Z,38.50
2023-02-26T10:14:41.723Z,37.30
2023-02-26T10:17:20.811Z,42.80
2023-02-26T10:19:55.488Z,40.20
2023-02-26T10:22:31.999Z,44.50
2023-02-26T10:25:09.782Z,37.70
2023-02-26T10:27:49.498Z,31.00
2023-02-26T10:30:28.107Z,28.20
2023-02-26T10:33:04.712Z,34.50
2023-02-26T10:35:44.711Z,34.00
2023-02-26T10:38:21.366Z,29.50
2023-02-26T10:41:02.360Z,28.60
2023-02-26T10:43:39.379Z,28.70
2023-02-26T10:46:20.567Z,27.90
2023-02-26T10:49:02.737Z,25.40
2023-02-26T10:51:37.980Z,25.30
2023-02-26T10:54:16.840Z,27.00
2023-02-26T10:56:49.839Z,28.00
2023-02-26T10:59:26.454Z,25.50
2023-02-26T11:02:00.026Z,27.50
2023-02-26T11:04:33.190Z,26.70
2023-02-26T11:07:07.199Z,31.30
2023-02-26T11:09:42.476Z,28.10
2023-02-26T11:12:18.292Z,28.50
2023-02-26T11:14:51.344Z,29.10
2023-02-26T11:17:32.606Z,28.80
2023-02-26T11:20:09.300Z,26.30
2023-02-26T11:22:42.389Z,23.60
2023-02-26T11:25:18.659Z,22.60
2023-02-26T11:28:03.183Z,25.70
2023-02-26T11:30:39.991Z,25.90
2023-02-26T11:33:19.994Z,25.00
2023-02-26T11:35:55.539Z,26.40
2023-02-26T11:38:30.839Z,27.10
2023-02-26T11:41:04.487Z,26.80
2023-02-26T11:43:44.473Z,26.20
2023-02-26T11:46:17.959Z,25.60
2023-02-26T11:48:51.211Z,25.40
2023-02-26T11:51:26.282Z,25.40
2023-02-26T11:54:01.600Z,24.70
2023-02-26T11:56:39.456Z,26.00
2023-02-26T11:59:20.789Z,25.30
2023-02-26T12:01:54.728Z,26.40
2023-02-26T12:04:29.006Z,24.60
2023-02-26T12:07:01.888Z,24.00
2023-02-26T12:09:36.101Z,25.50
2023-02-26T12:12:15.621Z,25.00
2023-02-26T12:15:04.552Z,24.30
2023-02-26T12:17:50.371Z,24.90
2023-02-26T12:20:33.299Z,27.20
2023-02-26T12:23:16.857Z,25.50
2023-02-26T12:26:05.898Z,26.30
2023-02-26T12:28:48.665Z,26.00
2023-02-26T12:31:36.629Z,29.30
2023-02-26T12:34:27.920Z,28.60
2023-02-26T12:37:16.547Z,33.70
2023-02-26T12:39:59.452Z,31.60
2023-02-26T12:42:51.663Z,28.00
2023-02-26T12:48:26.968Z,28.50
2023-02-26T12:51:03.432Z,28.80
2023-02-26T12:53:45.708Z,26.50
2023-02-26T12:56:46.657Z,28.00
2023-02-26T12:59:37.040Z,31.10
2023-02-26T13:02:24.931Z,30.40
2023-02-26T13:05:12.103Z,31.00
2023-02-26T13:07:56.084Z,29.40
2023-02-26T13:10:34.196Z,27.60
2023-02-26T13:13:19.217Z,29.40
2023-02-26T13:16:10.954Z,29.00
2023-02-26T13:18:49.102Z,30.10
2023-02-26T13:21:24.991Z,27.20
2023-02-26T13:23:59.873Z,30.00
2023-02-26T13:26:32.913Z,32.20
2023-02-26T13:29:10.845Z,29.60
2023-02-26T13:31:45.483Z,29.70
2023-02-26T13:34:19.934Z,29.60
2023-02-26T13:36:53.642Z,26.00
2023-02-26T13:39:43.728Z,27.70
2023-02-26T13:42:34.332Z,28.00
2023-02-26T13:45:18.316Z,27.60
2023-02-26T13:48:03.385Z,24.60
2023-02-26T13:50:42.896Z,24.40
2023-02-26T13:53:53.558Z,25.60
2023-02-26T13:56:48.631Z,23.80
2023-02-26T13:59:40.206Z,24.00
2023-02-26T14:02:37.208Z,25.80
2023-02-26T14:05:28.847Z,25.20
2023-02-26T14:08:22.718Z,28.50
2023-02-26T14:11:00.624Z,28.30
2023-02-26T14:13:40.394Z,30.60
2023-02-26T14:16:22.139Z,33.90
2023-02-26T14:18:55.607Z,39.00
2023-02-26T14:21:51.533Z,44.00
2023-02-26T14:24:26.196Z,32.80
2023-02-26T14:27:32.931Z,34.80
2023-02-26T14:30:18.923Z,31.40
2023-02-26T14:33:08.260Z,35.00
2023-02-26T14:35:45.755Z,33.60
2023-02-26T14:38:20.452Z,32.20
2023-02-26T14:40:56.303Z,31.00
2023-02-26T14:43:33.284Z,30.20
2023-02-26T14:46:06.287Z,32.00
2023-02-26T14:48:42.901Z,31.60
2023-02-26T14:51:21.737Z,30.00
2023-02-26T14:54:08.988Z,28.50
2023-02-26T14:56:50.686Z,30.70
2023-02-26T14:59:48.605Z,28.80
2023-02-26T15:02:27.580Z,27.40
2023-02-26T15:05:32.923Z,28.10
2023-02-26T15:08:17.329Z,31.90
2023-02-26T15:11:00.761Z,34.00
2023-02-26T15:13:44.055Z,35.50
2023-02-26T15:16:23.614Z,40.00
2023-02-26T15:19:06.189Z,38.30
2023-02-26T15:21:44.836Z,42.90
2023-02-26T15:24:17.797Z,46.40
2023-02-26T15:26:53.477Z,45.30
2023-02-26T15:29:30.480Z,45.00
2023-02-26T15:32:15.846Z,43.30
2023-02-26T15:34:50.861Z,44.40
2023-02-26T15:37:26.564Z,42.80
2023-02-26T15:40:06.497Z,41.70
2023-02-26T15:42:41.712Z,40.60
2023-02-26T15:45:17.512Z,41.00
2023-02-26T15:47:52.921Z,39.50
2023-02-26T15:50:26.695Z,43.40
2023-02-26T15:53:02.610Z,38.10
2023-02-26T15:55:37.616Z,43.70
2023-02-26T15:58:11.411Z,39.50
2023-02-26T16:00:45.368Z,41.20
2023-02-26T16:03:18.656Z,42.30
2023-02-26T16:05:51.586Z,41.00
2023-02-26T16:08:28.064Z,48.30
2023-02-26T16:11:01.560Z,47.40
2023-02-26T16:13:37.914Z,49.30
2023-02-26T16:16:13.168Z,47.70
2023-02-26T16:18:47.144Z,51.00
2023-02-26T16:21:30.797Z,48.50
2023-02-26T16:24:04.967Z,51.40
2023-02-26T16:26:39.743Z,48.90
2023-02-26T16:29:20.302Z,52.20
2023-02-26T16:31:56.184Z,46.80
2023-02-26T16:34:47.103Z,51.30
2023-02-26T16:37:28.221Z,46.60
2023-02-26T16:40:07.047Z,52.70
2023-02-26T16:42:53.229Z,54.10
2023-02-26T16:45:49.557Z,52.30
2023-02-26T16:48:25.529Z,52.70
2023-02-26T16:51:01.500Z,53.70
2023-02-26T16:53:37.801Z,49.50
2023-02-26T16:56:10.901Z,53.60
2023-02-26T16:58:43.685Z,48.50
2023-02-26T17:01:20.346Z,46.50
2023-02-26T17:03:56.873Z,51.10
2023-02-26T17:06:31.832Z,45.30
2023-02-26T17:09:04.909Z,43.80
2023-02-26T17:11:44.589Z,38.50
2023-02-26T17:14:24.122Z,51.90
2023-02-26T17:17:01.395Z,53.00
2023-02-26T17:19:35.384Z,50.70
2023-02-26T17:22:09.143Z,46.30
2023-02-26T17:24:45.449Z,52.40
2023-02-26T17:27:21.754Z,47.00
2023-02-26T17:29:54.410Z,50.20
2023-02-26T17:32:29.600Z,46.30
2023-02-26T17:35:06.503Z,51.20
2023-02-26T17:37:39.787Z,47.20
2023-02-26T17:40:21.810Z,44.60
2023-02-26T17:42:57.351Z,46.30
2023-02-26T17:45:30.242Z,49.00
2023-02-26T17:48:03.508Z,50.10
2023-02-26T17:50:41.884Z,48.70
2023-02-26T17:53:15.100Z,46.90
2023-02-26T17:55:48.919Z,45.00
2023-02-26T17:58:27.693Z,44.40
2023-02-26T18:01:01.277Z,42.20
2023-02-26T18:03:34.354Z,39.80
2023-02-26T18:06:08.267Z,37.70
2023-02-26T18:08:41.108Z,34.90
2023-02-26T18:11:15.161Z,33.40
2023-02-26T18:13:48.374Z,38.20
2023-02-26T18:16:23.140Z,36.30
2023-02-26T18:18:56.787Z,37.90
2023-02-26T18:21:30.119Z,35.10
2023-02-26T18:24:03.274Z,37.00
2023-02-26T18:26:36.414Z,36.00
2023-02-26T18:29:09.147Z,34.70
2023-02-26T18:31:42.994Z,35.00
2023-02-26T18:34:17.870Z,34.60
2023-02-26T18:36:50.829Z,32.60
2023-02-26T18:39:28.134Z,35.60
2023-02-26T18:42:01.756Z,32.30
2023-02-26T18:44:35.074Z,32.30
2023-02-26T18:47:08.652Z,32.20
2023-02-26T18:49:41.591Z,29.00
2023-02-26T18:52:15.102Z,31.90
2023-02-26T18:54:48.400Z,29.30
2023-02-26T18:57:21.767Z,28.80
2023-02-26T18:59:55.069Z,32.00
2023-02-26T19:02:29.043Z,28.50
2023-02-26T19:05:02.365Z,33.20
2023-02-26T19:07:35.918Z,29.80
2023-02-26T19:10:12.945Z,30.90
2023-02-26T19:15:24.630Z,29.70
2023-02-26T19:17:58.018Z,28.10
2023-02-26T19:20:31.198Z,33.00
2023-02-26T19:23:07.046Z,27.90
2023-02-26T19:25:43.962Z,27.70
2023-02-26T19:28:18.868Z,29.10
2023-02-26T19:30:52.022Z,30.50
2023-02-26T19:33:25.487Z,33.00
2023-02-26T19:35:59.860Z,32.80
2023-02-26T19:38:32.951Z,35.30
2023-02-26T19:41:06.153Z,34.20
2023-02-26T19:43:39.179Z,35.00
2023-02-26T19:46:13.559Z,33.00
2023-02-26T19:48:47.069Z,30.60
2023-02-26T19:51:20.209Z,27.80
2023-02-26T19:53:53.365Z,29.60
2023-02-26T19:56:29.314Z,27.20
2023-02-26T19:59:03.055Z,25.20
2023-02-26T20:01:35.953Z,25.20
2023-02-26T20:04:09.897Z,24.20
2023-02-26T20:06:42.909Z,24.60
2023-02-26T20:09:20.606Z,24.20
2023-02-26T20:11:55.634Z,24.40
2023-02-26T20:14:34.845Z,30.50
2023-02-26T20:17:12.717Z,39.70
2023-02-26T20:19:46.769Z,39.50
2023-02-26T20:22:23.046Z,41.20
2023-02-26T20:24:57.111Z,41.30
2023-02-26T20:27:30.126Z,46.00
2023-02-26T20:30:03.257Z,41.40
2023-02-26T20:32:37.550Z,38.30
2023-02-26T20:35:11.699Z,40.80
2023-02-26T20:37:45.589Z,33.80
2023-02-26T20:40:20.636Z,30.90
2023-02-26T20:42:55.181Z,31.00
2023-02-26T20:45:28.216Z,33.30
2023-02-26T20:48:01.220Z,40.30
2023-02-26T20:50:35.028Z,36.00
2023-02-26T20:53:09.089Z,33.70
2023-02-26T20:55:41.923Z,31.70
2023-02-26T20:58:14.966Z,29.00
2023-02-26T21:00:48.211Z,28.60
2023-02-26T21:03:21.350Z,27.20
2023-02-26T21:05:54.520Z,30.40
2023-02-26T21:08:28.500Z,29.60
2023-02-26T21:11:02.365Z,26.70
2023-02-26T21:13:37.245Z,25.10
2023-02-26T21:16:10.624Z,27.90
2023-02-26T21:18:43.776Z,28.10
2023-02-26T21:21:21.269Z,25.10
2023-02-26T21:23:54.793Z,21.30
2023-02-26T21:26:27.896Z,19.20
2023-02-26T21:29:03.037Z,19.30
2023-02-26T21:31:41.299Z,17.90
2023-02-26T21:34:32.628Z,19.20
2023-02-26T21:37:08.190Z,17.90
2023-02-26T21:39:41.380Z,18.40
2023-02-26T21:42:15.709Z,18.70
2023-02-26T21:44:49.682Z,19.50
2023-02-26T21:47:23.874Z,18.70
2023-02-26T21:49:57.320Z,15.80
2023-02-26T21:52:33.141Z,15.30
2023-02-26T21:55:06.484Z,14.10
2023-02-26T21:57:39.549Z,15.20
2023-02-26T22:00:15.617Z,13.90
2023-02-26T22:02:48.410Z,14.10
2023-02-26T22:05:21.126Z,13.40
2023-02-26T22:07:54.168Z,12.40
2023-02-26T22:10:29.826Z,12.80
2023-02-26T22:13:02.906Z,12.30
2023-02-26T22:15:35.816Z,14.60
2023-02-26T22:18:10.596Z,11.80
2023-02-26T22:20:44.943Z,11.40
2023-02-26T22:23:18.053Z,12.40
2023-02-26T22:25:51.652Z,13.10
2023-02-26T22:28:24.801Z,12.00
2023-02-26T22:30:58.911Z,12.10
2023-02-26T22:33:32.309Z,13.70
2023-02-26T22:36:06.164Z,12.30
2023-02-26T22:38:39.183Z,14.10
2023-02-26T22:41:12.746Z,16.50
2023-02-26T22:43:45.724Z,17.20
2023-02-26T22:46:19.220Z,17.10
2023-02-26T22:48:52.026Z,15.40
2023-02-26T22:51:30.074Z,15.50
2023-02-26T22:54:03.113Z,16.40
2023-02-26T22:56:36.849Z,17.00
2023-02-26T22:59:09.991Z,14.90
2023-02-26T23:01:43.058Z,14.80
2023-02-26T23:04:16.371Z,15.70
2023-02-26T23:06:50.060Z,17.60
2023-02-26T23:09:24.085Z,17.10
2023-02-26T23:11:57.286Z,14.90
2023-02-26T23:14:30.327Z,15.60
2023-02-26T23:17:04.302Z,14.80
2023-02-26T23:19:37.882Z,13.80
2023-02-26T23:22:11.474Z,13.70
2023-02-26T23:24:46.665Z,14.70
2023-02-26T23:27:24.080Z,14.60
2023-02-26T23:29:59.298Z,13.60
2023-02-26T23:32:32.719Z,12.90
2023-02-26T23:35:05.788Z,12.10
2023-02-26T23:37:39.634Z,12.80
2023-02-26T23:40:15.028Z,13.90
2023-02-26T23:42:48.448Z,15.50
2023-02-26T23:45:21.260Z,15.10
2023-02-26T23:47:54.132Z,16.30
2023-02-26T23:50:26.979Z,14.70
2023-02-26T23:52:59.678Z,15.70
2023-02-26T23:55:32.883Z,16.30
2023-02-26T23:58:05.633Z,16.40
